createdAt,value
2018-09-17T00:01:06.513Z,999.90
2018-09-17T00:03:34.343Z,999.90
2018-09-17T00:06:02.175Z,999.90
2018-09-17T00:08:30.012Z,999.90
2018-09-17T00:10:57.871Z,999.90
2018-09-17T00:13:25.813Z,999.90
2018-09-17T00:15:53.688Z,999.90
2018-09-17T00:18:21.522Z,999.90
2018-09-17T00:20:49.342Z,999.90
2018-09-17T00:23:17.179Z,999.90
2018-09-17T00:25:45.008Z,999.90
2018-09-17T00:28:12.838Z,999.90
2018-09-17T00:30:40.669Z,999.90
2018-09-17T00:33:08.498Z,999.90
2018-09-17T00:35:36.325Z,999.90
2018-09-17T00:38:04.166Z,999.90
2018-09-17T00:40:31.995Z,999.90
2018-09-17T00:42:59.849Z,999.90
2018-09-17T00:45:27.674Z,999.90
2018-09-17T00:47:55.518Z,999.90
2018-09-17T00:50:23.334Z,999.90
2018-09-17T00:52:51.174Z,999.90
2018-09-17T00:55:18.995Z,999.90
2018-09-17T00:57:46.864Z,999.90
2018-09-17T01:00:14.664Z,999.90
2018-09-17T01:02:42.494Z,999.90
2018-09-17T01:05:10.334Z,999.90
2018-09-17T01:07:38.166Z,999.90
2018-09-17T01:10:05.995Z,999.90
2018-09-17T01:12:33.833Z,999.90
2018-09-17T01:15:01.658Z,999.90
2018-09-17T01:17:29.498Z,999.90
2018-09-17T01:19:57.333Z,999.90
2018-09-17T01:22:25.166Z,999.90
2018-09-17T01:24:53.001Z,999.90
2018-09-17T01:27:20.835Z,999.90
2018-09-17T01:29:48.675Z,999.90
2018-09-17T01:32:16.499Z,999.90
2018-09-17T01:34:44.330Z,999.90
2018-09-17T01:37:12.158Z,999.90
2018-09-17T01:39:39.999Z,999.90
2018-09-17T01:42:07.826Z,999.90
2018-09-17T01:44:35.667Z,999.90
2018-09-17T01:47:03.478Z,999.90
2018-09-17T01:49:31.307Z,999.90
2018-09-17T01:51:59.133Z,999.90
2018-09-17T01:54:26.956Z,999.90
2018-09-17T01:56:54.782Z,999.90
2018-09-17T01:59:22.613Z,999.90
2018-09-17T02:01:50.446Z,999.90
2018-09-17T02:04:18.270Z,999.90
2018-09-17T02:06:46.098Z,999.90
2018-09-17T02:09:14.016Z,999.90
2018-09-17T02:11:41.777Z,999.90
2018-09-17T02:14:09.609Z,999.90
2018-09-17T02:16:37.436Z,999.90
2018-09-17T02:19:05.277Z,999.90
2018-09-17T02:21:33.106Z,999.90
2018-09-17T02:24:00.954Z,999.90
2018-09-17T02:26:28.867Z,999.90
2018-09-17T02:28:56.717Z,999.90
2018-09-17T02:31:24.539Z,999.90
2018-09-17T02:33:52.391Z,999.90
2018-09-17T02:36:20.215Z,999.90
2018-09-17T02:38:48.065Z,999.90
2018-09-17T02:41:15.889Z,999.90
2018-09-17T02:43:43.726Z,999.90
2018-09-17T02:46:11.565Z,996.30
2018-09-17T02:48:39.416Z,999.90
2018-09-17T02:51:07.243Z,999.90
2018-09-17T02:53:35.172Z,990.80
2018-09-17T02:56:02.922Z,999.90
2018-09-17T02:58:30.767Z,947.67
2018-09-17T03:00:58.607Z,964.70
2018-09-17T03:03:26.439Z,999.90
2018-09-17T03:05:55.192Z,999.90
2018-09-17T03:08:23.094Z,999.90
2018-09-17T03:10:50.971Z,999.90
2018-09-17T03:13:18.802Z,999.90
2018-09-17T03:15:49.790Z,999.90
2018-09-17T03:18:23.207Z,999.90
2018-09-17T03:20:51.054Z,999.90
2018-09-17T03:23:18.874Z,999.90
2018-09-17T03:25:46.721Z,999.90
2018-09-17T03:28:14.550Z,999.90
2018-09-17T03:30:42.384Z,999.90
2018-09-17T03:33:10.206Z,999.90
2018-09-17T03:35:38.038Z,999.90
2018-09-17T03:38:15.954Z,999.90
2018-09-17T03:40:43.790Z,999.90
2018-09-17T03:43:11.617Z,999.90
2018-09-17T03:45:39.446Z,999.90
2018-09-17T03:48:07.278Z,999.90
2018-09-17T03:50:35.110Z,999.90
2018-09-17T03:53:02.938Z,999.90
2018-09-17T03:55:30.773Z,999.90
2018-09-17T03:57:58.606Z,999.90
2018-09-17T04:00:26.470Z,999.90
2018-09-17T04:02:54.619Z,999.90
2018-09-17T04:05:22.448Z,999.90
2018-09-17T04:07:50.328Z,999.90
2018-09-17T04:10:18.276Z,999.90
2018-09-17T04:12:46.094Z,999.90
2018-09-17T04:15:13.930Z,999.90
2018-09-17T04:17:41.762Z,999.90
2018-09-17T04:20:09.603Z,999.90
2018-09-17T04:22:37.432Z,999.90
2018-09-17T04:25:05.270Z,999.90
2018-09-17T04:27:33.089Z,999.90
2018-09-17T04:30:00.931Z,999.90
2018-09-17T04:32:28.762Z,999.90
2018-09-17T04:34:58.015Z,996.43
2018-09-17T04:37:25.854Z,990.40
2018-09-17T04:39:53.771Z,999.90
2018-09-17T04:42:21.558Z,999.90
2018-09-17T04:44:49.401Z,999.90
2018-09-17T04:47:17.234Z,999.13
2018-09-17T04:49:45.087Z,999.90
2018-09-17T04:52:12.918Z,987.93
2018-09-17T04:54:40.758Z,999.90
2018-09-17T04:57:08.608Z,989.83
2018-09-17T04:59:36.433Z,990.67
2018-09-17T05:02:04.274Z,999.90
2018-09-17T05:04:32.107Z,999.90
2018-09-17T05:06:59.946Z,975.87
2018-09-17T05:09:27.775Z,999.90
2018-09-17T05:11:55.638Z,999.90
2018-09-17T05:14:23.470Z,999.90
2018-09-17T05:16:51.301Z,999.90
2018-09-17T05:19:19.139Z,999.90
2018-09-17T05:21:46.978Z,999.90
2018-09-17T05:24:14.811Z,999.90
2018-09-17T05:26:42.685Z,999.90
2018-09-17T05:29:10.494Z,999.90
2018-09-17T05:31:38.339Z,999.90
2018-09-17T05:34:06.231Z,999.90
2018-09-17T05:36:34.075Z,999.90
2018-09-17T05:39:01.914Z,999.90
2018-09-17T05:41:29.750Z,999.90
2018-09-17T05:43:57.926Z,999.90
2018-09-17T05:46:25.774Z,999.90
2018-09-17T05:48:53.610Z,999.90
2018-09-17T05:51:21.458Z,999.90
2018-09-17T05:53:49.379Z,999.90
2018-09-17T05:56:17.134Z,999.90
2018-09-17T05:58:45.016Z,999.90
2018-09-17T06:01:12.810Z,999.90
2018-09-17T06:03:40.642Z,999.90
2018-09-17T06:06:08.553Z,999.90
2018-09-17T06:08:36.333Z,999.90
2018-09-17T06:11:04.209Z,999.90
2018-09-17T06:13:32.026Z,999.90
2018-09-17T06:15:59.867Z,999.90
2018-09-17T06:18:27.693Z,999.90
2018-09-17T06:20:55.616Z,999.90
2018-09-17T06:23:23.487Z,999.90
2018-09-17T06:25:51.306Z,999.90
2018-09-17T06:28:19.138Z,999.90
2018-09-17T06:30:46.974Z,999.90
2018-09-17T06:33:14.803Z,999.90
2018-09-17T06:35:42.639Z,999.90
2018-09-17T06:38:10.474Z,999.90
2018-09-17T06:40:38.310Z,999.90
2018-09-17T06:43:06.162Z,999.90
2018-09-17T06:45:33.995Z,999.90
2018-09-17T06:48:01.839Z,999.90
2018-09-17T06:50:29.699Z,999.90
2018-09-17T06:52:57.538Z,999.90
2018-09-17T06:55:25.391Z,999.90
2018-09-17T06:57:53.231Z,999.90
2018-09-17T07:00:21.077Z,999.90
2018-09-17T07:02:48.918Z,999.90
2018-09-17T07:05:16.746Z,999.90
2018-09-17T07:07:44.619Z,999.90
2018-09-17T07:10:12.454Z,999.90
2018-09-17T07:12:40.299Z,999.90
2018-09-17T07:15:08.123Z,999.90
2018-09-17T07:17:35.962Z,999.90
2018-09-17T07:20:03.801Z,999.90
2018-09-17T07:22:31.643Z,999.90
2018-09-17T07:24:59.470Z,999.90
2018-09-17T07:27:27.307Z,999.90
2018-09-17T07:29:55.144Z,938.13
2018-09-17T07:32:23.031Z,999.90
2018-09-17T07:34:50.866Z,999.33
2018-09-17T07:37:18.729Z,969.63
2018-09-17T07:39:46.570Z,999.90
2018-09-17T07:42:14.406Z,994.10
2018-09-17T07:44:42.227Z,999.90
2018-09-17T07:47:10.062Z,999.90
2018-09-17T07:49:37.886Z,660.60
2018-09-17T07:52:05.727Z,906.27
2018-09-17T07:54:33.555Z,641.63
2018-09-17T07:57:01.401Z,703.47
2018-09-17T07:59:29.230Z,595.93
2018-09-17T08:01:57.062Z,819.90
2018-09-17T08:04:24.881Z,419.80
2018-09-17T08:06:52.719Z,490.57
2018-09-17T08:09:20.769Z,273.97
2018-09-17T08:11:48.394Z,132.27
2018-09-17T08:14:16.211Z,77.30
2018-09-17T08:16:44.093Z,66.23
2018-09-17T08:19:11.922Z,59.60
2018-09-17T08:21:39.842Z,442.07
2018-09-17T08:24:07.673Z,291.27
2018-09-17T08:26:35.510Z,440.57
2018-09-17T08:29:03.324Z,30.20
2018-09-17T08:31:31.164Z,426.53
2018-09-17T08:33:59.275Z,202.53
2018-09-17T08:36:27.225Z,616.13
2018-09-17T08:38:55.057Z,618.73
2018-09-17T08:41:22.906Z,785.10
2018-09-17T08:43:50.730Z,755.57
2018-09-17T08:46:18.564Z,342.23
2018-09-17T08:48:46.389Z,785.53
2018-09-17T08:51:14.217Z,688.87
2018-09-17T08:53:42.043Z,467.97
2018-09-17T08:56:15.559Z,577.17
2018-09-17T08:59:03.885Z,124.53
2018-09-17T09:01:37.390Z,547.20
2018-09-17T09:04:10.870Z,496.43
2018-09-17T09:06:44.217Z,76.97
2018-09-17T09:09:13.178Z,247.20
2018-09-17T09:11:46.530Z,248.80
2018-09-17T09:14:19.930Z,328.07
2018-09-17T09:19:22.203Z,110.97
2018-09-17T09:21:50.462Z,701.23
2018-09-17T09:24:18.310Z,235.47
2018-09-17T09:26:46.146Z,299.03
2018-09-17T09:29:13.974Z,198.77
2018-09-17T09:31:41.815Z,47.73
2018-09-17T09:34:09.642Z,255.90
2018-09-17T09:36:37.482Z,81.50
2018-09-17T09:39:06.883Z,38.33
2018-09-17T09:41:34.722Z,135.03
2018-09-17T09:44:02.537Z,52.00
2018-09-17T09:46:30.377Z,41.07
2018-09-17T09:48:58.190Z,26.60
2018-09-17T09:51:26.014Z,12.77
2018-09-17T09:53:53.836Z,10.30
2018-09-17T09:56:21.655Z,9.93
2018-09-17T09:58:49.466Z,5.57
2018-09-17T10:01:25.147Z,3.60
2018-09-17T10:03:58.622Z,4.10
2018-09-17T10:06:26.447Z,6.27
2018-09-17T10:08:59.906Z,3.90
2018-09-17T10:11:33.267Z,4.43
2018-09-17T10:14:06.758Z,4.37
2018-09-17T10:16:35.123Z,8.97
2018-09-17T10:19:08.395Z,4.00
2018-09-17T10:21:36.211Z,5.87
2018-09-17T10:24:04.032Z,5.00
2018-09-17T10:26:31.849Z,3.87
2018-09-17T10:28:59.662Z,3.90
2018-09-17T10:31:27.489Z,5.77
2018-09-17T10:33:55.306Z,5.90
2018-09-17T10:36:23.147Z,5.70
2018-09-17T10:38:50.959Z,4.67
2018-09-17T10:41:18.785Z,5.13
2018-09-17T10:43:46.658Z,5.80
2018-09-17T10:46:14.491Z,5.17
2018-09-17T10:48:42.306Z,5.60
2018-09-17T10:51:10.132Z,4.30
2018-09-17T10:53:37.949Z,5.70
2018-09-17T10:56:06.066Z,3.60
2018-09-17T10:58:33.878Z,3.87
2018-09-17T11:01:01.694Z,4.23
2018-09-17T11:03:29.531Z,4.37
2018-09-17T11:05:57.350Z,3.50
2018-09-17T11:08:25.182Z,3.67
2018-09-17T11:10:52.994Z,3.60
2018-09-17T11:13:20.813Z,3.57
2018-09-17T11:15:49.180Z,3.70
2018-09-17T11:18:17.674Z,3.00
2018-09-17T11:20:46.533Z,3.60
2018-09-17T11:23:14.358Z,3.13
2018-09-17T11:25:42.176Z,3.60
2018-09-17T11:28:10.040Z,3.40
2018-09-17T11:30:37.853Z,3.10
2018-09-17T11:33:05.826Z,3.10
2018-09-17T11:35:33.642Z,2.97
2018-09-17T11:38:01.483Z,3.40
2018-09-17T11:40:29.303Z,3.00
2018-09-17T11:42:57.159Z,3.00
2018-09-17T11:45:25.143Z,2.90
2018-09-17T11:47:52.980Z,2.60
2018-09-17T11:50:20.805Z,3.37
2018-09-17T11:52:48.934Z,2.93
2018-09-17T11:55:16.770Z,2.70
2018-09-17T11:57:44.603Z,2.77
2018-09-17T12:00:16.770Z,3.73
2018-09-17T12:02:50.214Z,3.40
2018-09-17T12:05:23.573Z,2.70
2018-09-17T12:07:51.402Z,3.00
2018-09-17T12:10:19.223Z,3.27
2018-09-17T12:12:47.059Z,3.30
2018-09-17T12:15:14.874Z,3.70
2018-09-17T12:17:42.707Z,2.70
2018-09-17T12:20:10.524Z,2.63
2018-09-17T12:22:38.351Z,2.93
2018-09-17T12:25:06.179Z,2.57
2018-09-17T12:27:34.014Z,2.73
2018-09-17T12:30:01.837Z,2.70
2018-09-17T12:32:29.676Z,3.10
2018-09-17T12:34:57.490Z,2.83
2018-09-17T12:37:25.325Z,3.17
2018-09-17T12:39:53.141Z,3.13
2018-09-17T12:42:20.965Z,2.73
2018-09-17T12:44:48.774Z,2.70
2018-09-17T12:47:16.611Z,2.80
2018-09-17T12:49:44.426Z,2.87
2018-09-17T12:52:12.255Z,2.57
2018-09-17T12:54:40.071Z,2.97
2018-09-17T12:57:07.920Z,3.00
2018-09-17T12:59:35.714Z,2.87
2018-09-17T13:02:03.555Z,2.93
2018-09-17T13:04:31.371Z,3.10
2018-09-17T13:06:59.190Z,3.33
2018-09-17T13:09:27.010Z,3.30
2018-09-17T13:11:54.854Z,2.90
2018-09-17T13:14:22.686Z,2.70
2018-09-17T13:16:50.507Z,2.80
2018-09-17T13:19:18.332Z,3.40
2018-09-17T13:21:46.183Z,2.97
2018-09-17T13:24:13.978Z,2.80
2018-09-17T13:26:41.800Z,2.97
2018-09-17T13:29:09.626Z,3.03
2018-09-17T13:31:37.446Z,3.23
2018-09-17T13:34:05.275Z,3.17
2018-09-17T13:36:33.106Z,3.73
2018-09-17T13:39:00.942Z,2.93
2018-09-17T13:41:28.758Z,2.63
2018-09-17T13:43:56.593Z,3.10
2018-09-17T13:46:24.446Z,3.10
2018-09-17T13:48:52.298Z,2.90
2018-09-17T13:51:20.325Z,2.90
2018-09-17T13:53:48.183Z,2.57
2018-09-17T13:56:15.982Z,2.70
2018-09-17T13:58:43.814Z,2.97
2018-09-17T14:01:11.871Z,3.00
2018-09-17T14:03:39.737Z,3.30
2018-09-17T14:06:07.542Z,2.63
2018-09-17T14:08:35.376Z,2.80
2018-09-17T14:11:03.203Z,3.23
2018-09-17T14:13:31.034Z,2.83
2018-09-17T14:16:08.268Z,2.80
2018-09-17T14:18:36.908Z,3.00
2018-09-17T14:21:04.739Z,2.70
2018-09-17T14:23:32.573Z,2.70
2018-09-17T14:26:00.466Z,2.70
2018-09-17T14:28:28.312Z,2.97
2018-09-17T14:30:56.183Z,2.93
2018-09-17T14:33:29.574Z,3.43
2018-09-17T14:35:57.626Z,2.90
2018-09-17T14:38:25.561Z,3.00
2018-09-17T14:40:53.577Z,2.80
2018-09-17T14:43:21.348Z,3.23
2018-09-17T14:45:49.162Z,2.80
2018-09-17T14:48:17.005Z,2.90
2018-09-17T14:50:44.978Z,2.60
2018-09-17T14:55:47.328Z,2.47
2018-09-17T14:58:15.185Z,2.47
2018-09-17T15:00:43.046Z,2.20
2018-09-17T15:03:10.883Z,2.50
2018-09-17T15:05:38.769Z,2.47
2018-09-17T15:08:07.124Z,3.03
2018-09-17T15:10:34.838Z,2.67
2018-09-17T15:13:02.662Z,2.70
2018-09-17T15:15:30.564Z,2.77
2018-09-17T15:17:58.416Z,2.97
2018-09-17T15:20:27.327Z,2.60
2018-09-17T15:22:55.148Z,2.80
2018-09-17T15:25:23.035Z,2.70
2018-09-17T15:27:50.883Z,2.40
2018-09-17T15:30:18.751Z,2.30
2018-09-17T15:32:46.636Z,2.87
2018-09-17T15:35:14.487Z,2.60
2018-09-17T15:37:43.007Z,2.80
2018-09-17T15:40:22.250Z,2.60
2018-09-17T15:42:50.599Z,2.40
2018-09-17T15:45:18.566Z,2.70
2018-09-17T15:47:46.407Z,2.40
2018-09-17T15:50:14.294Z,3.10
2018-09-17T15:52:42.084Z,2.40
2018-09-17T15:55:16.931Z,2.70
2018-09-17T15:57:45.032Z,2.50
2018-09-17T16:00:12.908Z,2.30
2018-09-17T16:02:40.844Z,2.53
2018-09-17T16:05:08.630Z,2.47
2018-09-17T16:07:40.752Z,2.67
2018-09-17T16:10:09.091Z,2.60
2018-09-17T16:12:37.135Z,2.57
2018-09-17T16:15:04.962Z,2.47
2018-09-17T16:17:32.886Z,3.10
2018-09-17T16:20:00.959Z,7.33
2018-09-17T16:22:31.742Z,3.27
2018-09-17T16:24:59.578Z,18.10
2018-09-17T16:27:27.407Z,42.97
2018-09-17T16:29:55.256Z,132.80
2018-09-17T16:32:23.171Z,86.70
2018-09-17T16:34:51.057Z,85.33
2018-09-17T16:37:18.910Z,544.50
2018-09-17T16:39:46.825Z,160.17
2018-09-17T16:42:14.651Z,593.97
2018-09-17T16:44:42.487Z,305.73
2018-09-17T16:47:10.443Z,21.93
2018-09-17T16:49:38.443Z,575.77
2018-09-17T16:52:06.482Z,871.80
2018-09-17T16:54:34.979Z,937.20
2018-09-17T16:57:02.886Z,998.83
2018-09-17T16:59:30.734Z,999.90
2018-09-17T17:01:58.596Z,999.90
2018-09-17T17:04:26.443Z,951.13
2018-09-17T17:06:54.270Z,996.53
2018-09-17T17:09:22.220Z,999.90
2018-09-17T17:11:50.194Z,948.43
2018-09-17T17:14:17.949Z,999.90
2018-09-17T17:16:46.285Z,999.90
2018-09-17T17:19:14.151Z,999.90
2018-09-17T17:21:41.995Z,999.90
2018-09-17T17:24:09.871Z,999.90
2018-09-17T17:26:37.651Z,999.90
2018-09-17T17:29:05.482Z,999.90
2018-09-17T17:31:33.322Z,999.90
2018-09-17T17:34:01.208Z,999.90
2018-09-17T17:36:37.010Z,999.90
2018-09-17T17:39:06.973Z,999.90
2018-09-17T17:41:34.961Z,999.90
2018-09-17T17:44:02.797Z,999.90
2018-09-17T17:46:30.814Z,999.90
2018-09-17T17:48:59.687Z,999.90
2018-09-17T17:51:28.139Z,999.90
2018-09-17T17:53:57.116Z,999.90
2018-09-17T17:56:26.337Z,999.90
2018-09-17T17:58:55.280Z,999.90
2018-09-17T18:01:23.535Z,999.90
2018-09-17T18:03:51.383Z,999.90
2018-09-17T18:06:19.704Z,999.90
2018-09-17T18:08:48.040Z,999.90
2018-09-17T18:11:15.935Z,999.90
2018-09-17T18:13:43.766Z,999.90
2018-09-17T18:16:11.638Z,999.90
2018-09-17T18:18:39.564Z,999.90
2018-09-17T18:21:07.735Z,999.90
2018-09-17T18:23:35.886Z,999.90
2018-09-17T18:26:03.787Z,999.90
2018-09-17T18:28:31.639Z,999.90
2018-09-17T18:30:59.458Z,999.90
2018-09-17T18:33:27.296Z,999.90
2018-09-17T18:35:55.555Z,999.90
2018-09-17T18:38:23.351Z,999.90
2018-09-17T18:40:51.263Z,999.90
2018-09-17T18:43:19.090Z,999.90
2018-09-17T18:45:46.920Z,999.90
2018-09-17T18:48:14.818Z,999.90
2018-09-17T18:50:42.685Z,999.90
2018-09-17T18:53:11.393Z,999.90
2018-09-17T18:55:39.245Z,999.90
2018-09-17T18:58:07.258Z,999.90
2018-09-17T19:00:35.197Z,999.90
2018-09-17T19:03:03.087Z,999.90
2018-09-17T19:05:30.917Z,999.90
2018-09-17T19:07:58.745Z,999.90
2018-09-17T19:10:26.618Z,999.90
2018-09-17T19:12:54.452Z,999.90
2018-09-17T19:15:28.203Z,999.90
2018-09-17T19:18:00.496Z,999.90
2018-09-17T19:20:28.436Z,999.90
2018-09-17T19:23:01.663Z,999.90
2018-09-17T19:25:29.547Z,999.90
2018-09-17T19:28:03.030Z,999.90
2018-09-17T19:30:30.870Z,999.90
2018-09-17T19:32:58.892Z,999.90
2018-09-17T19:35:26.723Z,999.90
2018-09-17T19:38:00.325Z,999.90
2018-09-17T19:40:28.027Z,999.90
2018-09-17T19:42:55.845Z,999.90
2018-09-17T19:45:29.371Z,999.90
2018-09-17T19:47:57.271Z,999.90
2018-09-17T19:50:30.761Z,999.90
2018-09-17T19:52:58.633Z,999.90
2018-09-17T19:55:26.710Z,999.90
2018-09-17T19:58:00.167Z,999.90
2018-09-17T20:00:28.135Z,999.90
2018-09-17T20:02:56.115Z,999.90
2018-09-17T20:05:29.738Z,999.90
2018-09-17T20:07:57.561Z,999.90
2018-09-17T20:10:25.509Z,999.90
2018-09-17T20:12:53.351Z,999.90
2018-09-17T20:15:21.210Z,999.90
2018-09-17T20:17:49.183Z,999.90
2018-09-17T20:20:17.090Z,999.90
2018-09-17T20:22:45.002Z,999.90
2018-09-17T20:25:12.959Z,999.90
2018-09-17T20:27:40.782Z,999.90
2018-09-17T20:30:08.605Z,999.90
2018-09-17T20:32:36.438Z,999.90
2018-09-17T20:35:04.314Z,999.90
2018-09-17T20:37:32.162Z,999.90
2018-09-17T20:40:00.033Z,999.90
2018-09-17T20:42:27.863Z,999.90
2018-09-17T20:44:56.730Z,999.90
2018-09-17T20:47:24.573Z,999.90
2018-09-17T20:49:52.432Z,999.90
2018-09-17T20:52:20.242Z,999.90
2018-09-17T20:54:48.079Z,999.90
2018-09-17T20:57:15.978Z,999.90
2018-09-17T20:59:43.810Z,999.90
2018-09-17T21:02:11.656Z,999.90
2018-09-17T21:04:39.482Z,999.90
2018-09-17T21:07:07.377Z,999.90
2018-09-17T21:09:35.154Z,999.90
2018-09-17T21:14:37.258Z,999.90
2018-09-17T21:17:05.090Z,999.90
2018-09-17T21:19:33.038Z,999.90
2018-09-17T21:22:00.819Z,999.90
2018-09-17T21:24:28.612Z,999.90
2018-09-17T21:26:56.439Z,999.90
2018-09-17T21:29:24.262Z,999.90
2018-09-17T21:31:52.094Z,999.90
2018-09-17T21:34:19.927Z,999.90
2018-09-17T21:36:47.806Z,999.90
2018-09-17T21:39:15.598Z,999.90
2018-09-17T21:41:43.430Z,999.90
2018-09-17T21:44:11.259Z,999.90
2018-09-17T21:46:39.135Z,999.90
2018-09-17T21:49:06.959Z,999.90
2018-09-17T21:51:34.786Z,999.90
2018-09-17T21:54:02.610Z,999.90
2018-09-17T21:56:30.446Z,999.90
2018-09-17T21:58:58.263Z,999.90
2018-09-17T22:01:26.103Z,999.90
2018-09-17T22:03:53.950Z,999.90
2018-09-17T22:06:21.786Z,999.90
2018-09-17T22:08:49.614Z,999.90
2018-09-17T22:11:17.459Z,999.90
2018-09-17T22:13:45.351Z,999.90
2018-09-17T22:16:13.126Z,999.90
2018-09-17T22:18:40.950Z,999.90
2018-09-17T22:21:08.794Z,999.90
2018-09-17T22:23:36.619Z,999.90
2018-09-17T22:26:04.459Z,999.90
2018-09-17T22:28:32.322Z,999.90
2018-09-17T22:31:00.150Z,999.90
2018-09-17T22:33:27.982Z,999.90
2018-09-17T22:35:55.816Z,999.90
2018-09-17T22:38:23.650Z,999.90
2018-09-17T22:40:51.475Z,999.90
2018-09-17T22:43:19.310Z,999.90
2018-09-17T22:45:47.158Z,999.90
2018-09-17T22:48:14.990Z,999.90
2018-09-17T22:50:42.929Z,999.90
2018-09-17T22:53:10.766Z,999.90
2018-09-17T22:55:38.585Z,999.90
2018-09-17T22:58:06.423Z,999.90
2018-09-17T23:00:34.246Z,999.90
2018-09-17T23:03:02.089Z,999.90
2018-09-17T23:05:29.909Z,999.90
2018-09-17T23:07:57.746Z,999.90
2018-09-17T23:10:25.583Z,999.90
2018-09-17T23:12:53.418Z,999.90
2018-09-17T23:15:21.267Z,999.90
2018-09-17T23:17:49.106Z,999.90
2018-09-17T23:20:16.929Z,999.90
2018-09-17T23:22:44.761Z,999.90
2018-09-17T23:25:12.606Z,999.90
2018-09-17T23:27:40.441Z,999.90
2018-09-17T23:30:08.274Z,999.90
2018-09-17T23:32:36.124Z,999.90
2018-09-17T23:35:03.964Z,999.90
2018-09-17T23:37:31.793Z,999.90
2018-09-17T23:39:59.627Z,999.90
2018-09-17T23:42:27.465Z,999.90
2018-09-17T23:44:55.314Z,999.90
2018-09-17T23:47:23.153Z,999.90
2018-09-17T23:49:50.987Z,999.90
2018-09-17T23:52:18.818Z,999.90
2018-09-17T23:54:46.646Z,999.90
2018-09-17T23:57:14.489Z,999.90
2018-09-17T23:59:42.389Z,999.90
